Time;durP1;ratioP1;P1;durP2;ratioP2;P2;SDS_P1;SDS_P2;PMS_P1;PMS_P2;Temp;Humidity;BMP_temperature;BMP_pressure;BME280_temperature;BME280_humidity;BME280_pressure;Samples;Min_cycle;Max_cycle;Signal;HPM_P1;HPM_P2
2022/09/08 00:01:55;;;;;;;4.47;2.30;;;22.00;72.30;;;;;;20670350;28;20238;-75
2022/09/08 00:11:57;;;;;;;4.43;1.90;;;22.00;72.70;;;;;;20669403;28;20242;-77
2022/09/08 00:21:59;;;;;;;8.80;4.43;;;21.90;72.90;;;;;;20668835;28;20276;-77
2022/09/08 00:32:01;;;;;;;12.00;3.37;;;21.90;73.30;;;;;;20668199;28;20202;-77
2022/09/08 00:42:03;;;;;;;9.03;2.70;;;21.90;73.60;;;;;;20667329;28;20260;-76
2022/09/08 00:52:05;;;;;;;35.17;9.50;;;21.80;74.00;;;;;;20666695;28;20541;-76
2022/09/08 01:02:23;;;;;;;10.47;3.30;;;21.80;74.10;;;;;;20666040;28;20240;-76
2022/09/08 01:12:44;;;;;;;6.00;3.53;;;21.90;74.50;;;;;;20664807;28;20312;-76
2022/09/08 01:23:23;;;;;;;8.57;2.77;;;21.90;74.70;;;;;;20646783;28;20283;-76
2022/09/08 01:33:25;;;;;;;5.63;3.30;;;21.80;77.50;;;;;;20569317;28;20624;-76
2022/09/08 01:43:27;;;;;;;7.73;3.23;;;21.60;80.60;;;;;;20663116;28;20273;-77
2022/09/08 01:53:29;;;;;;;8.83;3.60;;;21.40;83.60;;;;;;20662231;28;20245;-76
2022/09/08 02:03:30;;;;;;;6.43;3.60;;;21.20;86.90;;;;;;20660597;28;20234;-79
2022/09/08 02:13:33;;;;;;;5.13;3.03;;;21.20;89.90;;;;;;20661110;28;20339;-79
2022/09/08 02:23:39;;;;;;;7.53;2.80;;;21.10;90.80;;;;;;20660500;28;20291;-79
2022/09/08 02:33:41;;;;;;;7.07;3.13;;;21.00;91.60;;;;;;20660226;28;20217;-79
2022/09/08 02:43:43;;;;;;;6.37;3.20;;;20.90;92.40;;;;;;20659921;28;20740;-78
2022/09/08 02:53:45;;;;;;;4.30;2.83;;;20.80;93.10;;;;;;20659351;28;20213;-76
2022/09/08 03:03:47;;;;;;;6.93;3.27;;;20.70;93.80;;;;;;20658792;28;20238;-78
2022/09/08 03:13:51;;;;;;;7.90;4.43;;;20.30;94.90;;;;;;20658902;28;20239;-78
2022/09/08 03:23:53;;;;;;;7.53;3.70;;;20.00;96.00;;;;;;20673383;28;20780;-75
2022/09/08 03:33:55;;;;;;;6.77;3.13;;;20.20;96.40;;;;;;20672700;28;20224;-78
2022/09/08 03:43:57;;;;;;;6.63;3.20;;;20.20;96.70;;;;;;20671822;28;20293;-78
2022/09/08 04:04:22;;;;;;;7.87;3.50;;;20.20;97.30;;;;;;20670324;28;20205;-76
2022/09/08 04:14:25;;;;;;;4.53;3.10;;;20.10;97.40;;;;;;20669433;28;20237;-76
2022/09/08 04:24:26;;;;;;;4.37;2.97;;;20.10;97.50;;;;;;20651246;28;20345;-76
2022/09/08 04:34:28;;;;;;;4.67;3.57;;;20.10;97.60;;;;;;20668151;28;20213;-77
2022/09/08 04:44:31;;;;;;;5.10;3.43;;;20.10;97.80;;;;;;20667426;28;20668;-75
2022/09/08 04:54:33;;;;;;;4.50;3.60;;;20.00;98.00;;;;;;20666508;28;20204;-77
2022/09/08 05:04:34;;;;;;;3.67;3.10;;;20.00;98.20;;;;;;20665328;28;20225;-78
2022/09/08 05:14:36;;;;;;;6.37;3.63;;;19.90;98.40;;;;;;20663606;28;20415;-76
2022/09/08 05:24:38;;;;;;;6.87;3.90;;;20.00;98.60;;;;;;20663525;28;20554;-76
2022/09/08 05:34:40;;;;;;;8.90;3.47;;;20.00;98.80;;;;;;20662294;28;20691;-76
2022/09/08 05:44:41;;;;;;;5.00;3.43;;;20.10;99.00;;;;;;20658975;28;20213;-74
2022/09/08 05:54:43;;;;;;;4.87;3.47;;;20.10;99.10;;;;;;20655204;28;20219;-73
2022/09/08 06:04:45;;;;;;;5.60;3.17;;;20.10;99.20;;;;;;20652116;28;20217;-74
2022/09/08 06:14:46;;;;;;;7.83;3.90;;;19.90;99.20;;;;;;20652807;28;20240;-74
2022/09/08 06:24:48;;;;;;;7.43;3.40;;;19.70;99.50;;;;;;20657905;28;20221;-74
2022/09/08 06:34:55;;;;;;;6.33;4.53;;;19.50;99.90;;;;;;20658677;28;20678;-74
2022/09/08 06:45:01;;;;;;;5.40;4.13;;;19.60;99.90;;;;;;20659101;28;20245;-73
2022/09/08 06:55:29;;;;;;;5.37;3.20;;;19.60;99.90;;;;;;20671035;28;20318;-73
2022/09/08 07:06:00;;;;;;;6.27;3.33;;;19.60;99.90;;;;;;20673237;28;20212;-74
2022/09/08 07:16:13;;;;;;;4.03;2.70;;;19.60;99.90;;;;;;20672923;28;20737;-74
2022/09/08 07:26:32;;;;;;;5.30;2.77;;;19.50;99.90;;;;;;20672557;28;20208;-74
2022/09/08 07:36:44;;;;;;;4.40;2.70;;;19.50;99.90;;;;;;20671325;28;20238;-72
2022/09/08 07:46:49;;;;;;;4.07;2.40;;;19.50;99.90;;;;;;20671314;28;20208;-74
2022/09/08 07:57:12;;;;;;;2.83;2.00;;;19.50;99.90;;;;;;20670220;28;20268;-72
2022/09/08 08:07:41;;;;;;;3.07;1.87;;;19.50;99.90;;;;;;20668449;28;20319;-74
2022/09/08 08:18:12;;;;;;;4.93;1.70;;;19.60;99.90;;;;;;20668298;28;20252;-74
2022/09/08 08:28:17;;;;;;;1.60;1.50;;;19.70;99.90;;;;;;20667825;28;20268;-74
2022/09/08 08:38:37;;;;;;;1.60;1.50;;;19.80;99.90;;;;;;20671172;28;20236;-76
2022/09/08 08:48:59;;;;;;;3.43;1.90;;;19.80;99.80;;;;;;20672358;28;20212;-70
2022/09/08 08:59:11;;;;;;;4.30;1.70;;;19.90;99.50;;;;;;20671737;28;20237;-64
2022/09/08 09:09:29;;;;;;;1.63;1.50;;;20.00;98.50;;;;;;20670551;28;20212;-64
2022/09/08 09:20:15;;;;;;;4.27;1.40;;;20.20;97.40;;;;;;20669255;28;20303;-64
2022/09/08 09:30:22;;;;;;;1.67;1.50;;;20.40;96.70;;;;;;20669872;28;20213;-66
2022/09/08 09:40:50;;;;;;;1.50;1.40;;;20.60;95.60;;;;;;20668189;28;20288;-71
2022/09/08 09:51:05;;;;;;;3.83;1.60;;;20.70;95.30;;;;;;20667617;28;20209;-64
2022/09/08 10:01:07;;;;;;;2.60;1.80;;;21.00;94.40;;;;;;20667526;28;20237;-66
2022/09/08 10:11:27;;;;;;;1.43;1.33;;;21.00;93.70;;;;;;20667145;28;20209;-65
2022/09/08 10:21:51;;;;;;;3.93;1.43;;;21.20;92.90;;;;;;20666398;28;20245;-68
2022/09/08 10:32:02;;;;;;;1.83;1.50;;;21.10;91.80;;;;;;20664775;28;20667;-71
2022/09/08 10:42:35;;;;;;;3.30;1.20;;;21.10;91.40;;;;;;20664069;28;20252;-72
2022/09/08 10:52:50;;;;;;;1.80;1.30;;;21.50;90.80;;;;;;20664621;28;20214;-69
2022/09/08 11:03:07;;;;;;;5.90;1.30;;;21.50;88.60;;;;;;20664474;28;20308;-62
2022/09/08 11:13:42;;;;;;;3.90;1.30;;;21.40;87.30;;;;;;20664205;28;20269;-70
2022/09/08 11:23:58;;;;;;;1.10;1.00;;;21.50;85.40;;;;;;20663051;28;20277;-68
2022/09/08 11:34:15;;;;;;;2.40;2.10;;;21.50;83.80;;;;;;20663274;28;20667;-63
2022/09/08 11:44:46;;;;;;;3.23;1.20;;;21.60;81.40;;;;;;20676860;28;20629;-67
2022/09/08 11:55:07;;;;;;;1.00;0.90;;;21.90;80.20;;;;;;20658092;28;20690;-65
2022/09/08 12:05:40;;;;;;;7.87;5.33;;;21.90;79.30;;;;;;20673149;28;20209;-64
2022/09/08 12:16:05;;;;;;;3.30;1.90;;;22.20;78.20;;;;;;20674249;28;20333;-75
2022/09/08 12:26:28;;;;;;;1.27;0.87;;;22.50;75.50;;;;;;20655393;28;20217;-71
2022/09/08 12:36:37;;;;;;;1.27;0.90;;;22.50;71.70;;;;;;20668987;28;20237;-74
2022/09/08 12:46:53;;;;;;;1.30;1.10;;;22.60;69.80;;;;;;20672342;28;20639;-73
2022/09/08 12:57:06;;;;;;;5.43;1.03;;;22.80;68.50;;;;;;20671938;28;20237;-68
2022/09/08 13:07:21;;;;;;;8.60;1.00;;;22.70;68.90;;;;;;20671231;28;20224;-67
2022/09/08 13:17:46;;;;;;;7.23;2.00;;;22.60;69.80;;;;;;20669848;28;20285;-67
2022/09/08 13:28:09;;;;;;;1.73;0.70;;;22.50;69.40;;;;;;20670279;28;20248;-74
2022/09/08 13:38:20;;;;;;;3.07;1.67;;;22.40;66.60;;;;;;20668784;28;20317;-71
2022/09/08 13:48:40;;;;;;;3.43;1.00;;;22.40;66.50;;;;;;20666194;28;20236;-72
2022/09/08 13:58:47;;;;;;;1.60;1.37;;;22.40;65.50;;;;;;20666846;28;20234;-75
2022/09/08 14:09:07;;;;;;;0.83;0.80;;;22.60;65.70;;;;;;20666957;28;20206;-72
2022/09/08 14:19:40;;;;;;;2.70;2.37;;;22.70;65.40;;;;;;20666252;28;20296;-74
2022/09/08 14:29:54;;;;;;;1.30;1.00;;;22.80;64.70;;;;;;20666575;28;20260;-74
2022/09/08 14:40:08;;;;;;;1.33;0.97;;;23.10;64.10;;;;;;20665333;28;20598;-73
2022/09/08 14:50:30;;;;;;;2.23;1.00;;;23.20;61.50;;;;;;20648836;28;20698;-74
2022/09/08 15:00:39;;;;;;;3.50;2.50;;;24.40;60.10;;;;;;20665362;28;20233;-73
2022/09/08 15:11:10;;;;;;;1.50;0.93;;;24.50;58.90;;;;;;20652409;28;20264;-72
2022/09/08 15:21:20;;;;;;;2.00;1.80;;;23.60;59.60;;;;;;20680071;28;20304;-73
2022/09/08 15:31:32;;;;;;;5.20;4.13;;;24.00;59.70;;;;;;20679684;28;20205;-72
2022/09/08 15:41:39;;;;;;;1.70;0.97;;;23.70;59.30;;;;;;20662033;28;20237;-73
2022/09/08 15:51:59;;;;;;;1.53;0.90;;;23.40;59.30;;;;;;20678266;28;20206;-73
2022/09/08 16:02:04;;;;;;;1.33;0.80;;;23.10;59.30;;;;;;20677176;28;20715;-71
2022/09/08 16:12:15;;;;;;;0.80;0.60;;;22.80;58.80;;;;;;20676793;28;20317;-72
2022/09/08 16:22:22;;;;;;;5.40;2.70;;;22.60;58.90;;;;;;20674857;28;20264;-72
2022/09/08 16:32:31;;;;;;;1.23;0.80;;;22.50;59.20;;;;;;20674856;28;20684;-73
2022/09/08 16:42:47;;;;;;;1.90;0.93;;;22.60;59.60;;;;;;20674666;28;20233;-73
2022/09/08 16:53:15;;;;;;;2.70;1.00;;;22.40;60.20;;;;;;20673286;28;20202;-64
2022/09/08 17:03:17;;;;;;;3.83;1.07;;;22.20;61.10;;;;;;20678826;28;20234;-71
2022/09/08 17:13:24;;;;;;;3.13;1.33;;;22.20;62.80;;;;;;20671908;28;20242;-75
2022/09/08 17:23:31;;;;;;;2.90;1.43;;;22.20;63.90;;;;;;20653870;28;20269;-67
2022/09/08 17:33:48;;;;;;;2.53;1.23;;;22.10;64.30;;;;;;20668516;28;20214;-67
2022/09/08 17:44:09;;;;;;;4.10;1.47;;;22.00;64.80;;;;;;20669982;28;20724;-68
2022/09/08 17:54:44;;;;;;;3.80;1.13;;;21.90;65.40;;;;;;20668909;28;20217;-71
2022/09/08 18:04:51;;;;;;;1.73;1.10;;;21.80;65.70;;;;;;20626420;28;20241;-69
2022/09/08 18:15:22;;;;;;;2.63;1.13;;;21.70;66.30;;;;;;20666428;28;20237;-74
2022/09/08 18:25:47;;;;;;;2.43;1.30;;;21.50;66.90;;;;;;20641208;28;20296;-73
2022/09/08 18:36:27;;;;;;;2.27;1.40;;;21.50;67.60;;;;;;20647890;28;20675;-70
2022/09/08 18:47:11;;;;;;;3.37;1.40;;;21.30;68.00;;;;;;20667778;28;20212;-70
2022/09/08 18:57:25;;;;;;;6.80;1.27;;;21.00;69.00;;;;;;20682147;28;20252;-70
2022/09/08 19:07:45;;;;;;;4.83;1.67;;;20.80;69.80;;;;;;20680582;28;20201;-70
2022/09/08 19:17:55;;;;;;;2.43;1.20;;;20.70;69.90;;;;;;20679601;28;20241;-73
2022/09/08 19:28:17;;;;;;;9.83;1.90;;;20.70;69.80;;;;;;20675648;28;20264;-74
2022/09/08 19:38:26;;;;;;;8.77;1.63;;;20.60;70.00;;;;;;20672852;28;20742;-73
2022/09/08 19:48:53;;;;;;;1.83;1.20;;;20.50;70.50;;;;;;20672461;28;20213;-73
2022/09/08 19:59:01;;;;;;;4.33;1.20;;;20.30;71.30;;;;;;20671049;28;20263;-75
2022/09/08 20:09:14;;;;;;;1.97;1.00;;;20.20;71.60;;;;;;20673666;28;20352;-75
2022/09/08 20:19:41;;;;;;;3.20;0.93;;;20.20;71.30;;;;;;20671177;28;20585;-74
2022/09/08 20:29:55;;;;;;;4.43;1.50;;;20.30;71.10;;;;;;20668512;28;20440;-74
2022/09/08 20:40:06;;;;;;;2.23;1.00;;;20.50;71.70;;;;;;20666966;28;20268;-74
2022/09/08 20:50:11;;;;;;;3.03;1.13;;;20.40;71.80;;;;;;20667702;28;20288;-76
2022/09/08 21:00:23;;;;;;;5.57;1.50;;;20.40;71.40;;;;;;20666997;28;20236;-73
2022/09/08 21:10:36;;;;;;;2.67;1.40;;;20.40;71.40;;;;;;20666668;28;20208;-71
2022/09/08 21:20:51;;;;;;;2.50;1.10;;;20.30;71.60;;;;;;20665096;28;20256;-73
2022/09/08 21:31:08;;;;;;;4.60;1.20;;;20.20;71.80;;;;;;20664621;28;20247;-72
2022/09/08 21:41:29;;;;;;;10.03;1.83;;;20.00;72.00;;;;;;20647628;28;20244;-71
2022/09/08 21:51:50;;;;;;;2.13;1.00;;;19.90;71.90;;;;;;20667538;28;20239;-72
2022/09/08 22:01:57;;;;;;;2.20;0.97;;;19.80;72.30;;;;;;20668591;28;20763;-73
2022/09/08 22:12:09;;;;;;;4.23;1.10;;;19.60;72.40;;;;;;20668458;28;20245;-72
2022/09/08 22:22:18;;;;;;;2.33;1.07;;;19.50;72.90;;;;;;20667269;28;20704;-76
2022/09/08 22:32:49;;;;;;;3.33;1.20;;;19.40;73.50;;;;;;20668085;28;20269;-76
2022/09/08 22:43:20;;;;;;;2.73;1.40;;;19.30;74.20;;;;;;20667718;28;20239;-74
2022/09/08 22:53:29;;;;;;;2.83;1.20;;;19.20;75.50;;;;;;20666837;28;20274;-73
2022/09/08 23:03:36;;;;;;;2.40;1.50;;;19.00;76.30;;;;;;20666132;28;20758;-76
2022/09/08 23:14:10;;;;;;;2.70;1.30;;;18.90;77.40;;;;;;20665774;28;20663;-73
2022/09/08 23:24:36;;;;;;;2.73;1.40;;;18.80;78.20;;;;;;20660829;28;20700;-74
2022/09/08 23:35:01;;;;;;;3.17;1.30;;;18.80;78.90;;;;;;20671803;28;20214;-73
2022/09/08 23:45:14;;;;;;;2.67;1.20;;;18.50;79.60;;;;;;20678928;28;20238;-74
2022/09/08 23:55:20;;;;;;;1.60;1.30;;;18.40;80.50;;;;;;20678656;28;20258;-73
